Time;durP1;ratioP1;P1;durP2;ratioP2;P2;SDS_P1;SDS_P2;PMS_P1;PMS_P2;Temp;Humidity;BMP_temperature;BMP_pressure;BME280_temperature;BME280_humidity;BME280_pressure;Samples;Min_cycle;Max_cycle;Signal;HPM_P1;HPM_P2
2021/11/03 00:00:53;;;;;;;6.13;2.85;;;;;;;;;;5055501;28;20083;-57
2021/11/03 00:03:19;;;;;;;7.65;2.60;;;;;;;;;;5054304;28;20454;-54
2021/11/03 00:05:46;;;;;;;5.63;3.13;;;;;;;;;;5054995;28;20032;-54
2021/11/03 00:08:13;;;;;;;7.10;3.33;;;;;;;;;;5054018;28;20024;-53
2021/11/03 00:10:42;;;;;;;8.00;3.85;;;;;;;;;;5054703;28;20025;-53
2021/11/03 00:13:12;;;;;;;8.55;3.05;;;;;;;;;;5054197;28;20081;-53
2021/11/03 00:15:38;;;;;;;8.20;3.70;;;;;;;;;;5054958;28;20082;-53
2021/11/03 00:18:04;;;;;;;6.07;2.95;;;;;;;;;;5054746;28;20116;-53
2021/11/03 00:20:30;;;;;;;6.03;3.28;;;;;;;;;;5053639;28;20025;-53
2021/11/03 00:22:57;;;;;;;6.45;3.08;;;;;;;;;;5053568;28;20446;-54
2021/11/03 00:25:23;;;;;;;7.45;3.20;;;;;;;;;;5035523;28;20030;-54
2021/11/03 00:27:49;;;;;;;6.75;2.50;;;;;;;;;;5034349;28;20029;-53
2021/11/03 00:30:15;;;;;;;5.10;2.78;;;;;;;;;;5034696;28;20049;-53
2021/11/03 00:32:41;;;;;;;4.70;2.38;;;;;;;;;;5034186;28;20104;-53
2021/11/03 00:35:07;;;;;;;8.52;2.58;;;;;;;;;;5032836;28;20113;-53
2021/11/03 00:37:33;;;;;;;7.45;2.65;;;;;;;;;;5034321;28;20030;-53
2021/11/03 00:39:59;;;;;;;5.55;2.40;;;;;;;;;;5034064;28;20026;-53
2021/11/03 00:42:25;;;;;;;3.03;2.38;;;;;;;;;;5034649;28;20025;-53
2021/11/03 00:44:51;;;;;;;6.93;2.60;;;;;;;;;;5033781;28;20025;-53
2021/11/03 00:47:17;;;;;;;7.60;3.50;;;;;;;;;;5034345;28;20449;-53
2021/11/03 00:49:43;;;;;;;4.28;2.60;;;;;;;;;;5034482;28;20104;-53
2021/11/03 00:52:09;;;;;;;4.00;2.70;;;;;;;;;;5034192;28;20661;-53
2021/11/03 00:54:35;;;;;;;4.30;2.17;;;;;;;;;;5033107;28;20104;-53
2021/11/03 00:57:01;;;;;;;4.78;2.78;;;;;;;;;;5034180;28;20435;-53
2021/11/03 00:59:27;;;;;;;4.43;2.45;;;;;;;;;;5034213;28;20113;-53
2021/11/03 01:01:53;;;;;;;4.70;2.40;;;;;;;;;;5033782;28;20375;-53
2021/11/03 01:04:19;;;;;;;3.95;2.55;;;;;;;;;;5033630;28;20022;-53
2021/11/03 01:06:45;;;;;;;5.53;2.88;;;;;;;;;;5032550;28;20144;-53
2021/11/03 01:09:11;;;;;;;6.20;2.60;;;;;;;;;;5032468;28;20039;-53
2021/11/03 01:11:38;;;;;;;2.10;1.95;;;;;;;;;;5033721;28;20108;-53
2021/11/03 01:14:05;;;;;;;3.83;2.30;;;;;;;;;;5033075;28;20018;-53
2021/11/03 01:16:31;;;;;;;3.70;2.13;;;;;;;;;;5034000;28;20041;-53
2021/11/03 01:18:57;;;;;;;3.10;2.28;;;;;;;;;;5033407;28;20029;-54
2021/11/03 01:21:23;;;;;;;4.72;2.60;;;;;;;;;;5032466;28;20474;-53
2021/11/03 01:23:50;;;;;;;5.30;2.15;;;;;;;;;;5032530;28;20044;-53
2021/11/03 01:26:16;;;;;;;3.40;1.60;;;;;;;;;;5033785;28;20025;-53
2021/11/03 01:28:42;;;;;;;3.50;1.98;;;;;;;;;;5033827;28;20097;-53
2021/11/03 01:31:08;;;;;;;2.58;1.60;;;;;;;;;;5033559;28;20191;-54
2021/11/03 01:33:34;;;;;;;1.75;1.45;;;;;;;;;;5032424;28;20402;-53
2021/11/03 01:36:00;;;;;;;4.53;2.28;;;;;;;;;;5033236;28;20048;-54
2021/11/03 01:38:26;;;;;;;3.47;2.25;;;;;;;;;;5033103;28;20029;-53
2021/11/03 01:40:52;;;;;;;3.70;2.72;;;;;;;;;;5033663;28;20029;-53
2021/11/03 01:43:33;;;;;;;2.63;1.63;;;;;;;;;;5032491;28;20025;-53
2021/11/03 01:46:17;;;;;;;2.70;1.65;;;;;;;;;;5032598;28;20024;-54
2021/11/03 01:48:43;;;;;;;3.35;1.75;;;;;;;;;;5033156;28;20025;-53
2021/11/03 01:51:11;;;;;;;2.08;1.42;;;;;;;;;;5033094;28;20025;-53
2021/11/03 01:53:37;;;;;;;3.72;2.00;;;;;;;;;;5032227;28;20035;-53
2021/11/03 01:56:05;;;;;;;3.33;1.88;;;;;;;;;;5033309;28;20040;-53
2021/11/03 01:58:34;;;;;;;5.45;2.17;;;;;;;;;;5033187;28;20025;-53
2021/11/03 02:01:00;;;;;;;2.95;1.92;;;;;;;;;;5033287;28;20030;-53
2021/11/03 02:03:28;;;;;;;2.03;1.58;;;;;;;;;;5032128;28;20022;-53
2021/11/03 02:05:59;;;;;;;1.90;1.65;;;;;;;;;;5032903;28;20221;-53
2021/11/03 02:08:26;;;;;;;2.53;2.15;;;;;;;;;;5032071;28;20339;-54
2021/11/03 02:10:52;;;;;;;3.80;1.70;;;;;;;;;;5032529;28;20022;-53
2021/11/03 02:13:18;;;;;;;2.92;1.60;;;;;;;;;;5030897;28;20371;-53
2021/11/03 02:15:45;;;;;;;5.70;2.30;;;;;;;;;;5032629;28;20032;-54
2021/11/03 02:18:12;;;;;;;4.75;1.58;;;;;;;;;;5033172;28;20025;-53
2021/11/03 02:20:39;;;;;;;4.78;2.35;;;;;;;;;;5032669;28;20028;-53
2021/11/03 02:23:10;;;;;;;3.53;1.80;;;;;;;;;;5032290;28;20363;-53
2021/11/03 02:25:42;;;;;;;3.63;1.60;;;;;;;;;;5032994;28;20059;-53
2021/11/03 02:28:08;;;;;;;4.85;2.13;;;;;;;;;;5032623;28;20025;-53
2021/11/03 02:30:34;;;;;;;2.90;2.00;;;;;;;;;;5032934;28;20463;-53
2021/11/03 02:33:03;;;;;;;2.53;1.95;;;;;;;;;;5031677;28;20026;-53
2021/11/03 02:35:29;;;;;;;2.80;1.55;;;;;;;;;;5032600;28;20462;-53
2021/11/03 02:37:56;;;;;;;2.90;2.30;;;;;;;;;;5032386;28;20362;-53
2021/11/03 02:40:40;;;;;;;3.00;1.98;;;;;;;;;;5032841;28;20031;-53
2021/11/03 02:43:09;;;;;;;4.40;2.17;;;;;;;;;;5031402;28;20105;-53
2021/11/03 02:45:39;;;;;;;3.60;2.05;;;;;;;;;;5032756;28;20075;-53
2021/11/03 02:48:05;;;;;;;6.82;2.38;;;;;;;;;;5032288;28;20053;-54
2021/11/03 02:50:32;;;;;;;5.63;2.15;;;;;;;;;;5032155;28;20493;-54
2021/11/03 02:52:58;;;;;;;4.90;2.45;;;;;;;;;;5032153;28;20025;-53
2021/11/03 02:55:24;;;;;;;3.85;2.10;;;;;;;;;;5032446;28;20034;-53
2021/11/03 02:57:50;;;;;;;3.80;2.13;;;;;;;;;;5034898;28;20022;-54
2021/11/03 03:00:18;;;;;;;5.00;2.17;;;;;;;;;;5035932;28;20064;-53
2021/11/03 03:02:44;;;;;;;6.38;2.20;;;;;;;;;;5036164;28;20523;-54
2021/11/03 03:05:11;;;;;;;2.47;1.63;;;;;;;;;;5035224;28;20030;-54
2021/11/03 03:07:37;;;;;;;3.30;1.95;;;;;;;;;;5035316;28;20053;-53
2021/11/03 03:10:04;;;;;;;3.83;2.20;;;;;;;;;;5036047;28;20101;-53
2021/11/03 03:12:31;;;;;;;4.28;1.95;;;;;;;;;;5036010;28;20121;-53
2021/11/03 03:14:57;;;;;;;6.63;2.63;;;;;;;;;;5033245;28;20100;-53
2021/11/03 03:17:24;;;;;;;8.38;2.28;;;;;;;;;;5034877;28;20487;-53
2021/11/03 03:19:50;;;;;;;4.97;2.20;;;;;;;;;;5035974;28;20064;-53
2021/11/03 03:22:17;;;;;;;4.00;2.03;;;;;;;;;;5035711;28;20025;-53
2021/11/03 03:24:43;;;;;;;3.20;1.90;;;;;;;;;;5035269;28;20030;-53
2021/11/03 03:27:09;;;;;;;2.70;1.83;;;;;;;;;;5035642;28;20030;-53
2021/11/03 03:29:36;;;;;;;2.25;1.70;;;;;;;;;;5035554;28;20017;-53
2021/11/03 03:32:02;;;;;;;4.97;2.60;;;;;;;;;;5035550;28;20033;-53
2021/11/03 03:34:28;;;;;;;2.92;2.08;;;;;;;;;;5034735;28;20029;-53
2021/11/03 03:36:55;;;;;;;2.63;1.88;;;;;;;;;;5035574;28;20091;-53
2021/11/03 03:39:22;;;;;;;4.78;2.50;;;;;;;;;;5035879;28;20448;-53
2021/11/03 03:41:50;;;;;;;3.45;2.38;;;;;;;;;;5035589;28;20111;-53
2021/11/03 03:44:16;;;;;;;2.67;1.90;;;;;;;;;;5034460;28;20451;-53
2021/11/03 03:46:42;;;;;;;12.88;1.98;;;;;;;;;;5034353;28;20027;-53
2021/11/03 03:49:08;;;;;;;2.80;2.42;;;;;;;;;;5035263;28;20026;-53
2021/11/03 03:51:35;;;;;;;4.07;2.28;;;;;;;;;;5035426;28;20044;-53
2021/11/03 03:54:01;;;;;;;3.47;2.00;;;;;;;;;;5034458;28;20030;-53
2021/11/03 03:56:27;;;;;;;3.80;2.13;;;;;;;;;;5044122;28;20402;-53
2021/11/03 03:58:53;;;;;;;1.92;1.65;;;;;;;;;;5054779;28;20076;-53
2021/11/03 04:01:25;;;;;;;5.05;2.88;;;;;;;;;;5055212;28;20108;-53
2021/11/03 04:03:51;;;;;;;3.67;1.90;;;;;;;;;;5053983;28;20037;-54
2021/11/03 04:06:17;;;;;;;3.65;2.10;;;;;;;;;;5054902;28;20078;-53
2021/11/03 04:08:43;;;;;;;4.07;2.17;;;;;;;;;;5053284;28;20029;-54
2021/11/03 04:11:09;;;;;;;3.00;2.03;;;;;;;;;;5054837;28;20013;-53
2021/11/03 04:13:36;;;;;;;4.38;2.40;;;;;;;;;;5053865;28;20021;-53
2021/11/03 04:16:02;;;;;;;4.05;2.22;;;;;;;;;;5054888;28;20083;-53
2021/11/03 04:18:28;;;;;;;3.47;2.10;;;;;;;;;;5055079;28;20017;-54
2021/11/03 04:20:54;;;;;;;4.93;2.60;;;;;;;;;;5053553;28;20060;-53
2021/11/03 04:23:21;;;;;;;4.18;2.38;;;;;;;;;;5053607;28;20023;-54
2021/11/03 04:25:48;;;;;;;4.03;2.47;;;;;;;;;;5054310;28;20032;-53
2021/11/03 04:28:14;;;;;;;2.78;1.88;;;;;;;;;;5054473;28;20431;-53
2021/11/03 04:30:40;;;;;;;4.40;2.22;;;;;;;;;;5054306;28;20036;-53
2021/11/03 04:33:06;;;;;;;3.03;2.13;;;;;;;;;;5053651;28;20025;-53
2021/11/03 04:35:32;;;;;;;3.13;2.00;;;;;;;;;;5054032;28;20112;-53
2021/11/03 04:37:58;;;;;;;5.35;1.95;;;;;;;;;;5054422;28;20028;-53
2021/11/03 04:40:26;;;;;;;3.40;1.92;;;;;;;;;;5054233;28;20488;-53
2021/11/03 04:42:52;;;;;;;3.33;2.40;;;;;;;;;;5053323;28;20025;-54
2021/11/03 04:45:18;;;;;;;5.55;2.25;;;;;;;;;;5053615;28;20102;-54
2021/11/03 04:47:44;;;;;;;6.22;2.40;;;;;;;;;;5053902;28;20040;-54
2021/11/03 04:50:13;;;;;;;3.13;1.90;;;;;;;;;;5053948;28;20040;-54
2021/11/03 04:52:39;;;;;;;3.83;1.98;;;;;;;;;;5053946;28;20087;-53
2021/11/03 04:55:06;;;;;;;2.65;1.73;;;;;;;;;;5053751;28;20024;-53
2021/11/03 04:57:32;;;;;;;2.55;1.83;;;;;;;;;;5054056;28;20129;-53
2021/11/03 05:00:01;;;;;;;2.35;1.70;;;;;;;;;;5054097;28;20021;-53
2021/11/03 05:02:27;;;;;;;3.67;2.07;;;;;;;;;;5052360;28;20025;-54
2021/11/03 05:04:54;;;;;;;4.57;2.33;;;;;;;;;;5053073;28;20350;-54
2021/11/03 05:07:20;;;;;;;5.10;2.53;;;;;;;;;;5052471;28;20021;-54
2021/11/03 05:09:46;;;;;;;2.85;1.98;;;;;;;;;;5053949;28;20025;-53
2021/11/03 05:12:12;;;;;;;3.55;2.22;;;;;;;;;;5053920;28;20013;-54
2021/11/03 05:14:38;;;;;;;4.40;1.85;;;;;;;;;;5052848;28;20021;-53
2021/11/03 05:17:04;;;;;;;2.28;1.88;;;;;;;;;;5053034;28;20363;-53
2021/11/03 05:19:31;;;;;;;6.03;2.60;;;;;;;;;;5053151;28;20071;-53
2021/11/03 05:21:57;;;;;;;4.00;2.35;;;;;;;;;;5053088;28;20061;-54
2021/11/03 05:24:23;;;;;;;4.75;2.38;;;;;;;;;;5052470;28;20052;-54
2021/11/03 05:26:50;;;;;;;4.20;2.45;;;;;;;;;;5053411;28;20471;-54
2021/11/03 05:29:16;;;;;;;4.93;2.95;;;;;;;;;;5053641;28;20024;-53
2021/11/03 05:31:43;;;;;;;4.90;2.33;;;;;;;;;;5052722;28;20036;-54
2021/11/03 05:34:09;;;;;;;2.80;2.25;;;;;;;;;;5052034;28;20028;-54
2021/11/03 05:36:35;;;;;;;4.18;2.85;;;;;;;;;;5052914;28;20489;-54
2021/11/03 05:39:04;;;;;;;11.13;2.85;;;;;;;;;;5053176;28;20086;-53
2021/11/03 05:41:30;;;;;;;4.30;2.47;;;;;;;;;;5053030;28;20439;-53
2021/11/03 05:43:58;;;;;;;3.65;2.72;;;;;;;;;;5049066;28;20455;-53
2021/11/03 05:46:29;;;;;;;5.88;2.50;;;;;;;;;;5053097;28;20089;-53
2021/11/03 05:48:56;;;;;;;5.82;2.60;;;;;;;;;;5053585;28;20025;-53
2021/11/03 05:51:23;;;;;;;6.75;3.58;;;;;;;;;;5052620;28;20025;-53
2021/11/03 05:53:49;;;;;;;6.03;2.75;;;;;;;;;;5051839;28;20340;-53
2021/11/03 05:56:15;;;;;;;6.55;2.97;;;;;;;;;;5052172;28;20040;-53
2021/11/03 05:58:41;;;;;;;3.83;2.67;;;;;;;;;;5047332;28;20020;-53
2021/11/03 06:01:07;;;;;;;4.65;2.60;;;;;;;;;;5037141;28;20052;-53
2021/11/03 06:03:34;;;;;;;5.25;2.95;;;;;;;;;;5032027;28;20026;-53
2021/11/03 06:06:00;;;;;;;4.65;2.92;;;;;;;;;;5041077;28;20028;-53
2021/11/03 06:08:26;;;;;;;5.30;3.00;;;;;;;;;;5050448;28;20064;-52
2021/11/03 06:10:53;;;;;;;5.45;3.10;;;;;;;;;;5052539;28;20021;-53
2021/11/03 06:13:20;;;;;;;6.47;3.38;;;;;;;;;;5052164;28;20025;-53
2021/11/03 06:15:46;;;;;;;5.30;3.00;;;;;;;;;;5050720;28;20024;-53
2021/11/03 06:18:13;;;;;;;7.25;2.55;;;;;;;;;;5053013;28;20036;-50
2021/11/03 06:20:39;;;;;;;5.20;2.78;;;;;;;;;;5053007;28;20017;-51
2021/11/03 06:23:05;;;;;;;6.88;2.75;;;;;;;;;;5039854;28;20055;-51
2021/11/03 06:25:31;;;;;;;6.57;2.78;;;;;;;;;;5030578;28;20683;-51
2021/11/03 06:27:57;;;;;;;7.63;3.28;;;;;;;;;;5031961;28;20024;-51
2021/11/03 06:30:25;;;;;;;7.85;3.42;;;;;;;;;;5031486;28;20033;-52
2021/11/03 06:32:51;;;;;;;5.50;3.05;;;;;;;;;;5045632;28;20029;-51
2021/11/03 06:35:18;;;;;;;4.82;2.90;;;;;;;;;;5056080;28;20024;-51
2021/11/03 06:37:44;;;;;;;3.70;2.53;;;;;;;;;;5056331;28;20087;-51
2021/11/03 06:40:12;;;;;;;4.55;3.15;;;;;;;;;;5056559;28;20090;-51
2021/11/03 06:42:38;;;;;;;8.77;4.10;;;;;;;;;;5056835;28;20415;-52
2021/11/03 06:45:05;;;;;;;9.05;3.67;;;;;;;;;;5055409;28;20025;-51
2021/11/03 06:47:31;;;;;;;9.75;3.45;;;;;;;;;;5056499;28;20154;-51
2021/11/03 06:49:57;;;;;;;5.03;3.08;;;;;;;;;;5056537;28;20112;-51
2021/11/03 06:52:24;;;;;;;5.25;3.55;;;;;;;;;;5056378;28;20032;-51
2021/11/03 06:54:50;;;;;;;5.15;2.47;;;;;;;;;;5055342;28;20163;-51
2021/11/03 06:57:16;;;;;;;8.40;3.08;;;;;;;;;;5056155;28;20120;-51
2021/11/03 06:59:43;;;;;;;8.52;3.15;;;;;;;;;;5056397;28;20021;-51
2021/11/03 07:02:11;;;;;;;4.03;2.50;;;;;;;;;;5056140;28;20036;-51
2021/11/03 07:04:37;;;;;;;3.13;2.40;;;;;;;;;;5055123;28;20524;-51
2021/11/03 07:07:04;;;;;;;2.85;2.42;;;;;;;;;;5054646;28;20112;-51
2021/11/03 07:09:30;;;;;;;3.10;2.25;;;;;;;;;;5056184;28;20017;-51
2021/11/03 07:11:56;;;;;;;3.15;2.03;;;;;;;;;;5056087;28;20557;-51
2021/11/03 07:14:22;;;;;;;3.53;2.10;;;;;;;;;;5055189;28;20348;-52
2021/11/03 07:16:48;;;;;;;3.92;2.35;;;;;;;;;;5056032;28;20090;-52
2021/11/03 07:19:14;;;;;;;4.10;2.10;;;;;;;;;;5055436;28;20028;-52
2021/11/03 07:21:40;;;;;;;4.03;1.85;;;;;;;;;;5056007;28;20025;-52
2021/11/03 07:24:06;;;;;;;3.17;2.53;;;;;;;;;;5054995;28;20099;-51
2021/11/03 07:26:32;;;;;;;3.92;2.35;;;;;;;;;;5054674;28;20112;-51
2021/11/03 07:28:58;;;;;;;6.22;2.78;;;;;;;;;;5055511;28;20124;-52
2021/11/03 07:31:24;;;;;;;6.10;2.63;;;;;;;;;;5055570;28;20090;-51
2021/11/03 07:33:50;;;;;;;5.28;2.35;;;;;;;;;;5053210;28;20029;-51
2021/11/03 07:36:19;;;;;;;8.13;2.42;;;;;;;;;;5055856;28;20106;-51
2021/11/03 07:38:45;;;;;;;7.93;2.90;;;;;;;;;;5055507;28;20457;-51
2021/11/03 07:41:11;;;;;;;4.97;2.55;;;;;;;;;;5055912;28;20028;-51
2021/11/03 07:43:38;;;;;;;3.95;2.20;;;;;;;;;;5054273;28;20017;-51
2021/11/03 07:46:04;;;;;;;2.78;2.13;;;;;;;;;;5055466;28;20025;-51
2021/11/03 07:48:31;;;;;;;2.75;2.05;;;;;;;;;;5054845;28;20027;-51
2021/11/03 07:50:59;;;;;;;4.28;2.17;;;;;;;;;;5055259;28;20442;-51
2021/11/03 07:53:25;;;;;;;4.68;2.38;;;;;;;;;;5054700;28;20067;-51
2021/11/03 07:55:54;;;;;;;2.83;1.95;;;;;;;;;;5055077;28;20114;-51
2021/11/03 07:58:22;;;;;;;2.42;1.92;;;;;;;;;;5055760;28;20029;-51
2021/11/03 08:00:49;;;;;;;2.50;1.67;;;;;;;;;;5055215;28;20083;-51
2021/11/03 08:03:15;;;;;;;2.78;1.90;;;;;;;;;;5054239;28;20036;-51
2021/11/03 08:05:41;;;;;;;8.27;1.63;;;;;;;;;;5055097;28;20365;-51
2021/11/03 08:08:11;;;;;;;3.72;2.22;;;;;;;;;;5053490;28;20438;-51
2021/11/03 08:10:38;;;;;;;3.45;2.40;;;;;;;;;;5054970;28;20477;-51
2021/11/03 08:13:05;;;;;;;4.18;2.33;;;;;;;;;;5054231;28;20037;-51
2021/11/03 08:15:31;;;;;;;5.93;2.22;;;;;;;;;;5054660;28;20086;-51
2021/11/03 08:17:58;;;;;;;4.63;2.72;;;;;;;;;;5055045;28;20029;-51
2021/11/03 08:20:25;;;;;;;3.80;2.25;;;;;;;;;;5054645;28;20032;-51
2021/11/03 08:22:55;;;;;;;5.57;2.03;;;;;;;;;;5055092;28;20029;-51
2021/11/03 08:25:21;;;;;;;4.10;2.83;;;;;;;;;;5054483;28;20367;-51
2021/11/03 08:27:47;;;;;;;4.15;2.75;;;;;;;;;;5054554;28;20025;-53
2021/11/03 08:30:14;;;;;;;2.53;2.20;;;;;;;;;;5054459;28;20036;-54
2021/11/03 08:32:43;;;;;;;3.20;2.28;;;;;;;;;;5055024;28;20056;-54
2021/11/03 08:35:11;;;;;;;5.87;2.70;;;;;;;;;;5053418;28;20470;-54
2021/11/03 08:37:38;;;;;;;3.35;2.72;;;;;;;;;;5054864;28;20036;-54
2021/11/03 08:40:06;;;;;;;4.20;2.80;;;;;;;;;;5054637;28;20029;-53
2021/11/03 08:42:32;;;;;;;8.30;2.65;;;;;;;;;;5054446;28;20029;-53
2021/11/03 08:44:58;;;;;;;3.33;2.20;;;;;;;;;;5053254;28;20051;-54
2021/11/03 08:47:25;;;;;;;3.63;2.60;;;;;;;;;;5053157;28;20602;-53
2021/11/03 08:49:53;;;;;;;8.52;3.10;;;;;;;;;;5054492;28;20332;-54
2021/11/03 08:52:20;;;;;;;4.30;3.13;;;;;;;;;;5054047;28;20033;-54
2021/11/03 08:54:47;;;;;;;5.65;2.90;;;;;;;;;;5052177;28;20108;-54
2021/11/03 08:57:14;;;;;;;3.75;2.30;;;;;;;;;;5054000;28;20036;-54
2021/11/03 08:59:40;;;;;;;3.58;2.47;;;;;;;;;;5054241;28;20025;-54
2021/11/03 09:02:06;;;;;;;4.55;2.45;;;;;;;;;;5054081;28;20137;-52
2021/11/03 09:04:33;;;;;;;2.58;2.05;;;;;;;;;;5053494;28;20025;-51
2021/11/03 09:06:59;;;;;;;4.70;2.88;;;;;;;;;;5051487;28;20021;-51
2021/11/03 09:09:25;;;;;;;4.35;2.60;;;;;;;;;;5054228;28;20036;-51
2021/11/03 09:11:52;;;;;;;5.18;2.55;;;;;;;;;;5054137;28;20025;-51
2021/11/03 09:14:20;;;;;;;6.55;2.95;;;;;;;;;;5052871;28;20370;-52
2021/11/03 09:16:46;;;;;;;3.45;2.25;;;;;;;;;;5053705;28;20043;-51
2021/11/03 09:19:12;;;;;;;4.05;2.70;;;;;;;;;;5053476;28;20025;-51
2021/11/03 09:21:38;;;;;;;3.60;2.55;;;;;;;;;;5053579;28;20170;-51
2021/11/03 09:24:05;;;;;;;4.90;3.33;;;;;;;;;;5052612;28;20511;-51
2021/11/03 09:26:31;;;;;;;5.85;2.70;;;;;;;;;;5053362;28;20566;-51
2021/11/03 09:28:59;;;;;;;4.18;2.67;;;;;;;;;;5053436;28;20056;-51
2021/11/03 09:31:25;;;;;;;4.10;2.92;;;;;;;;;;5053464;28;20032;-51
2021/11/03 09:33:51;;;;;;;6.47;2.97;;;;;;;;;;5052602;28;20108;-52
2021/11/03 09:36:20;;;;;;;3.75;2.33;;;;;;;;;;5053212;28;20120;-52
2021/11/03 09:38:46;;;;;;;5.13;3.38;;;;;;;;;;5053373;28;20151;-51
2021/11/03 09:41:12;;;;;;;4.75;3.20;;;;;;;;;;5053164;28;20112;-51
2021/11/03 09:43:41;;;;;;;5.68;2.75;;;;;;;;;;5052846;28;20013;-51
2021/11/03 09:46:26;;;;;;;3.53;2.45;;;;;;;;;;5053288;28;20025;-52
2021/11/03 09:48:54;;;;;;;8.18;2.83;;;;;;;;;;5053288;28;20043;-51
2021/11/03 09:51:22;;;;;;;5.80;3.45;;;;;;;;;;5053383;28;20071;-52
2021/11/03 09:53:50;;;;;;;5.25;2.85;;;;;;;;;;5052532;28;20120;-51
2021/11/03 09:56:19;;;;;;;7.18;3.20;;;;;;;;;;5053039;28;20068;-52
2021/11/03 09:58:52;;;;;;;5.07;3.03;;;;;;;;;;5052728;28;20056;-51
2021/11/03 10:01:26;;;;;;;2.47;1.95;;;;;;;;;;5053463;28;20100;-51
2021/11/03 10:03:57;;;;;;;4.15;3.10;;;;;;;;;;5052578;28;20025;-51
2021/11/03 10:06:26;;;;;;;2.38;2.17;;;;;;;;;;5052726;28;20017;-51
2021/11/03 10:08:52;;;;;;;3.20;2.50;;;;;;;;;;5051057;28;20437;-51
2021/11/03 10:11:21;;;;;;;5.30;2.78;;;;;;;;;;5052841;28;20447;-51
2021/11/03 10:13:47;;;;;;;4.15;2.67;;;;;;;;;;5052354;28;20040;-51
2021/11/03 10:16:13;;;;;;;4.93;2.90;;;;;;;;;;5052711;28;20061;-51
2021/11/03 10:18:54;;;;;;;3.83;2.53;;;;;;;;;;5052823;28;20059;-52
2021/11/03 10:21:33;;;;;;;3.00;2.10;;;;;;;;;;5052736;28;20029;-52
2021/11/03 10:24:11;;;;;;;4.70;2.40;;;;;;;;;;5051787;28;20028;-52
2021/11/03 10:26:49;;;;;;;8.88;3.20;;;;;;;;;;5052731;28;20037;-52
2021/11/03 10:29:17;;;;;;;3.88;3.05;;;;;;;;;;5052862;28;20119;-52
2021/11/03 10:31:58;;;;;;;4.55;2.80;;;;;;;;;;5052321;28;20037;-52
2021/11/03 10:34:29;;;;;;;4.97;2.50;;;;;;;;;;5051851;28;20108;-51
2021/11/03 10:37:11;;;;;;;8.27;2.55;;;;;;;;;;5052508;28;20029;-51
2021/11/03 10:39:44;;;;;;;6.75;3.05;;;;;;;;;;5052732;28;20025;-51
2021/11/03 10:42:21;;;;;;;5.80;2.75;;;;;;;;;;5052133;28;20033;-51
2021/11/03 10:44:48;;;;;;;3.47;2.55;;;;;;;;;;5051634;28;20037;-51
2021/11/03 10:47:17;;;;;;;6.60;3.20;;;;;;;;;;5053026;28;20025;-52
2021/11/03 10:49:50;;;;;;;3.90;2.33;;;;;;;;;;5052698;28;20056;-52
2021/11/03 10:52:23;;;;;;;5.03;2.85;;;;;;;;;;5051900;28;20025;-51
2021/11/03 10:54:50;;;;;;;3.25;2.35;;;;;;;;;;5051803;28;20040;-51
2021/11/03 10:57:37;;;;;;;8.18;2.75;;;;;;;;;;5052674;28;20037;-51
2021/11/03 11:00:25;;;;;;;3.30;2.25;;;;;;;;;;5052268;28;20021;-52
2021/11/03 11:03:02;;;;;;;7.90;2.65;;;;;;;;;;5051982;28;20447;-51
2021/11/03 11:05:29;;;;;;;4.47;2.60;;;;;;;;;;5052051;28;20025;-51
2021/11/03 11:08:03;;;;;;;4.40;3.05;;;;;;;;;;5050744;28;20079;-51
2021/11/03 11:10:29;;;;;;;4.13;2.95;;;;;;;;;;5052423;28;20099;-57
2021/11/03 11:12:56;;;;;;;2.63;2.10;;;;;;;;;;5051294;28;20100;-51
2021/11/03 11:15:32;;;;;;;6.63;3.10;;;;;;;;;;5052251;28;20351;-52
2021/11/03 11:18:29;;;;;;;3.90;2.35;;;;;;;;;;5052871;28;20455;-52
2021/11/03 11:20:57;;;;;;;5.70;2.95;;;;;;;;;;5056524;28;20351;-52
2021/11/03 11:23:28;;;;;;;3.20;2.33;;;;;;;;;;5054585;28;20483;-52
2021/11/03 11:26:00;;;;;;;5.95;2.97;;;;;;;;;;5055703;28;20116;-51
2021/11/03 11:28:45;;;;;;;5.07;2.72;;;;;;;;;;5055753;28;20033;-51
2021/11/03 11:31:32;;;;;;;4.60;2.97;;;;;;;;;;5055805;28;20475;-51
2021/11/03 11:34:10;;;;;;;5.72;2.72;;;;;;;;;;5055247;28;20029;-51
2021/11/03 11:36:55;;;;;;;4.75;2.60;;;;;;;;;;5055785;28;20033;-51
2021/11/03 11:39:30;;;;;;;3.47;2.53;;;;;;;;;;5055463;28;20127;-51
2021/11/03 11:42:13;;;;;;;6.30;2.58;;;;;;;;;;5054904;28;20036;-52
2021/11/03 11:44:45;;;;;;;5.45;2.83;;;;;;;;;;5048359;28;20029;-52
2021/11/03 11:47:17;;;;;;;4.50;2.70;;;;;;;;;;5046566;28;20092;-51
2021/11/03 11:49:43;;;;;;;4.63;2.90;;;;;;;;;;5055599;28;20057;-51
2021/11/03 11:52:19;;;;;;;4.60;3.15;;;;;;;;;;5055488;28;20091;-51
2021/11/03 11:55:03;;;;;;;6.95;3.33;;;;;;;;;;5035485;28;20037;-52
2021/11/03 11:57:30;;;;;;;6.03;3.00;;;;;;;;;;5035138;28;20034;-52
2021/11/03 12:00:08;;;;;;;7.20;3.38;;;;;;;;;;5035560;28;20080;-51
2021/11/03 12:02:52;;;;;;;5.53;3.30;;;;;;;;;;5034894;28;20030;-52
2021/11/03 12:05:22;;;;;;;8.38;4.28;;;;;;;;;;5034916;28;20030;-52
2021/11/03 12:08:08;;;;;;;3.35;2.33;;;;;;;;;;5033390;28;20452;-52
2021/11/03 12:10:34;;;;;;;3.92;2.85;;;;;;;;;;5030843;28;20406;-52
2021/11/03 12:13:06;;;;;;;4.25;2.50;;;;;;;;;;5033947;28;20144;-51
2021/11/03 12:15:58;;;;;;;5.63;3.25;;;;;;;;;;5034893;28;20474;-51
2021/11/03 12:18:27;;;;;;;3.80;2.33;;;;;;;;;;5035312;28;20030;-52
2021/11/03 12:20:59;;;;;;;6.63;3.15;;;;;;;;;;5034735;28;20017;-51
2021/11/03 12:23:40;;;;;;;4.18;2.55;;;;;;;;;;5033813;28;20033;-52
2021/11/03 12:26:28;;;;;;;3.15;2.03;;;;;;;;;;5034480;28;20073;-52
2021/11/03 12:28:57;;;;;;;4.72;2.25;;;;;;;;;;5034605;28;20033;-52
2021/11/03 12:31:23;;;;;;;4.93;2.45;;;;;;;;;;5034587;28;20359;-51
2021/11/03 12:34:16;;;;;;;4.43;1.83;;;;;;;;;;5033713;28;20104;-52
2021/11/03 12:36:48;;;;;;;4.10;2.00;;;;;;;;;;5012020;28;20104;-52
2021/11/03 12:39:31;;;;;;;3.92;2.53;;;;;;;;;;5012521;28;20356;-52
2021/11/03 12:42:23;;;;;;;5.20;3.00;;;;;;;;;;5011762;28;20423;-52
2021/11/03 12:44:54;;;;;;;6.80;3.30;;;;;;;;;;5011367;28;20040;-51
2021/11/03 12:47:20;;;;;;;4.78;2.83;;;;;;;;;;5012252;28;20084;-51
2021/11/03 12:49:58;;;;;;;68.13;17.67;;;;;;;;;;5012373;28;20025;-51
2021/11/03 12:52:26;;;;;;;25.08;9.13;;;;;;;;;;5011826;28;20161;-51
2021/11/03 12:54:53;;;;;;;3.72;2.55;;;;;;;;;;5011130;28;20041;-52
2021/11/03 12:57:22;;;;;;;7.30;3.55;;;;;;;;;;5011772;28;20030;-52
2021/11/03 13:00:03;;;;;;;7.63;2.78;;;;;;;;;;5011993;28;20068;-52
2021/11/03 13:02:31;;;;;;;5.25;2.72;;;;;;;;;;5012104;28;20379;-51
2021/11/03 13:05:03;;;;;;;5.00;3.20;;;;;;;;;;5010644;28;20101;-52
2021/11/03 13:07:31;;;;;;;4.97;2.95;;;;;;;;;;5009835;28;20116;-52
2021/11/03 13:09:59;;;;;;;4.22;3.00;;;;;;;;;;5011702;28;20034;-52
2021/11/03 13:12:26;;;;;;;6.68;3.13;;;;;;;;;;5013193;28;20427;-52
2021/11/03 13:14:53;;;;;;;4.72;2.72;;;;;;;;;;5032554;28;20017;-52
2021/11/03 13:17:21;;;;;;;5.13;3.35;;;;;;;;;;5033912;28;20038;-51
2021/11/03 13:19:47;;;;;;;7.07;3.30;;;;;;;;;;5033791;28;20025;-54
2021/11/03 13:22:16;;;;;;;4.28;2.67;;;;;;;;;;5033521;28;20625;-54
2021/11/03 13:24:43;;;;;;;5.85;2.92;;;;;;;;;;5033446;28;20386;-54
2021/11/03 13:27:13;;;;;;;3.83;2.78;;;;;;;;;;5033649;28;20100;-54
2021/11/03 13:29:40;;;;;;;5.25;2.65;;;;;;;;;;5033512;28;20538;-55
2021/11/03 13:32:12;;;;;;;6.50;3.10;;;;;;;;;;5033153;28;20479;-54
2021/11/03 13:34:50;;;;;;;5.45;2.80;;;;;;;;;;5032825;28;20064;-54
2021/11/03 13:37:26;;;;;;;4.90;3.05;;;;;;;;;;5033281;28;20046;-54
2021/11/03 13:39:54;;;;;;;3.10;2.28;;;;;;;;;;5033290;28;20092;-54
2021/11/03 13:42:28;;;;;;;4.32;2.47;;;;;;;;;;5032685;28;20063;-54
2021/11/03 13:45:07;;;;;;;3.50;2.40;;;;;;;;;;5032696;28;20035;-52
2021/11/03 13:47:35;;;;;;;5.82;2.78;;;;;;;;;;5033624;28;20105;-52
2021/11/03 13:50:07;;;;;;;4.75;2.75;;;;;;;;;;5033348;28;20103;-52
2021/11/03 13:52:33;;;;;;;11.07;2.70;;;;;;;;;;5033382;28;20022;-51
2021/11/03 13:55:00;;;;;;;5.72;2.70;;;;;;;;;;5032482;28;20103;-52
2021/11/03 13:57:36;;;;;;;5.93;2.55;;;;;;;;;;5032902;28;20049;-52
2021/11/03 14:00:08;;;;;;;6.43;3.22;;;;;;;;;;5033384;28;20021;-52
2021/11/03 14:02:37;;;;;;;5.07;2.55;;;;;;;;;;5033023;28;20025;-52
2021/11/03 14:05:23;;;;;;;10.95;3.30;;;;;;;;;;5031739;28;20052;-52
2021/11/03 14:07:49;;;;;;;3.60;2.58;;;;;;;;;;5033063;28;20059;-52
2021/11/03 14:10:15;;;;;;;5.32;2.72;;;;;;;;;;5033211;28;20109;-52
2021/11/03 14:12:41;;;;;;;3.55;3.00;;;;;;;;;;5031072;28;20075;-51
2021/11/03 14:15:08;;;;;;;3.13;2.38;;;;;;;;;;5043621;28;20033;-52
2021/11/03 14:17:42;;;;;;;4.88;3.15;;;;;;;;;;5052382;28;20033;-54
2021/11/03 14:20:21;;;;;;;3.88;2.53;;;;;;;;;;5053165;28;20025;-52
2021/11/03 14:22:47;;;;;;;5.05;2.67;;;;;;;;;;5052780;28;20108;-52
2021/11/03 14:25:24;;;;;;;5.93;2.65;;;;;;;;;;5051741;28;20059;-51
2021/11/03 14:27:51;;;;;;;7.95;3.25;;;;;;;;;;5051183;28;20459;-51
2021/11/03 14:30:17;;;;;;;6.18;3.05;;;;;;;;;;5052703;28;20029;-52
2021/11/03 14:32:45;;;;;;;4.47;3.50;;;;;;;;;;5052860;28;20025;-52
2021/11/03 14:35:18;;;;;;;8.25;3.97;;;;;;;;;;5049437;28;20026;-55
2021/11/03 14:37:44;;;;;;;7.90;3.70;;;;;;;;;;5050226;28;20200;-55
2021/11/03 14:40:15;;;;;;;9.18;4.22;;;;;;;;;;5051297;28;20063;-54
2021/11/03 14:42:41;;;;;;;7.90;3.65;;;;;;;;;;5052306;28;20033;-55
2021/11/03 14:45:08;;;;;;;14.13;4.13;;;;;;;;;;5051822;28;20029;-54
2021/11/03 14:47:34;;;;;;;7.20;3.90;;;;;;;;;;5052656;28;20040;-54
2021/11/03 14:50:02;;;;;;;5.15;3.45;;;;;;;;;;5052691;28;20461;-55
2021/11/03 14:52:38;;;;;;;20.67;4.45;;;;;;;;;;5052353;28;20047;-54